Ealing Mini Mile
Skip Navigation Links
Results
Live Leaderboard
Ealing Half Event Results
Race Stats
Smartphone Results
Race Website
23 September 2017
HyperLink
Click your name for detailed results
Page 1 of 4 (194 items)
[1]234
Pos
Bib No
Fav
Share
Print
Name
Gun Time
Chip Time
Category
Cat Pos
Gender
Gen Pos
Club
Pace
110699Jake BRIDGE5:54.25:54.29s1Male1 10.2 m/hr
210671Finlay VADON6:10.16:09.89s2Male2  9.7 m/hr
310735Christian SLATTERY6:21.26:20.99s3Male3EALING EAGLES 9.4 m/hr
410589Henry JONES6:25.26:25.09s4Male4EALING EAGLES 9.3 m/hr
511027Ed MASSEY6:30.06:28.69s5Male5  9.2 m/hr
610623Nathan POWLSON6:31.66:30.49s6Male6  9.2 m/hr
710724Marcus Antonius Ribeiro DIAS6:36.46:33.79s7Male7  9.1 m/hr
810764Joe GERRARD6:36.56:36.29s8Male8  9.1 m/hr
910590Isaac MEZEY6:38.16:34.89s9Male9  9.0 m/hr
1010625Joseph QUINN6:47.76:47.79s10Male10EALING EAGLES 8.8 m/hr
1110714Aryan BHAGAWATI6:49.66:49.09s11Male11  8.8 m/hr
1210763Freddie GERRARD6:51.26:51.09s12Male12  8.8 m/hr
1310685Oscar BIRD6:52.56:52.19s13Male13  8.7 m/hr
1410666Uther HUTCHINGS6:55.26:54.39s14Male14  8.7 m/hr
1510747James VAUGHAN6:56.46:56.29s15Male15  8.6 m/hr
1610688Yuta HIDAKA6:56.96:55.29s16Male16  8.6 m/hr
1710681Zachary FOGG6:59.76:56.89s17Male17  8.6 m/hr
1810767Johnny LAWRENCE7:00.87:00.89s18Male18  8.6 m/hr
1910651Arun JOYCE7:02.27:01.89s19Male19  8.5 m/hr
2010680Lily PETERSON7:04.07:00.89s1Female1  8.5 m/hr
2110649Oliver FIELD7:04.47:04.39s20Male20  8.5 m/hr
2210761Barney MORRIS7:05.07:02.29s21Male21  8.5 m/hr
2310765Joshua PILGERSTORFER7:05.37:01.89s22Male22SLOUGH JUNIOR ATHLETICS CLUB 8.5 m/hr
2410717Thomas SLOYAN7:07.07:03.19s23Male23  8.4 m/hr
2510703Morven PEARCE7:07.57:03.19s2Female2  8.4 m/hr
2610721Koudai SAKAYAMA7:10.87:10.69s24Male24  8.4 m/hr
2710659Megan PAGE7:12.37:11.79s3Female3EALING EAGLES 8.3 m/hr
2810568Armaan ANSARI7:13.67:13.59s25Male25  8.3 m/hr
2910564William PYE7:14.97:14.99s26Male26  8.3 m/hr
3010723William SQUIRE7:15.07:13.19s27Male27  8.3 m/hr
3110604Lucas CID7:16.67:16.09s28Male28  8.2 m/hr
3210752Danyal STITSON7:16.67:16.09s29Male29  8.2 m/hr
3310620Sophia LEONARD7:18.07:17.99s4Female4  8.2 m/hr
3410743Luca DULAK7:18.37:14.09s30Male30  8.2 m/hr
3510679Henry PETERSON7:19.17:19.19s31Male31  8.2 m/hr
3610551Daniel BROOKS7:20.37:19.79s32Male32  8.2 m/hr
3710751Asier MALLIA7:20.37:20.19s33Male33  8.2 m/hr
3810704Eve WARD7:21.27:19.89s5Female5ST AUGUSTINE'S PRIORY 8.2 m/hr
3910775Ivy LO7:22.57:21.09s6Female6ST AUGUSTINE'S PRIORY 8.1 m/hr
4010758Elliott POWELL7:22.57:18.49s34Male34  8.1 m/hr
4110698Oliver HARGEST7:23.17:22.69s35Male35  8.1 m/hr
4210720Sam WARR-BARA7:23.87:20.69s36Male36  8.1 m/hr
4310663Jack KIRBY7:27.67:26.79s37Male37  8.0 m/hr
4410676Maria SCOTT7:27.97:27.89s7Female7  8.0 m/hr
4510722Eleanor SQUIRE7:28.07:25.39s8Female8  8.0 m/hr
4610715Samuel LEWIS7:32.37:32.29s38Male38  8.0 m/hr
4710744Annabel FAWCETT7:34.97:31.79s9Female9  7.9 m/hr
4810569Benjamin MOERDYK7:36.77:35.19s39Male39  7.9 m/hr
4910619Immi Van Der GRAAF7:37.27:36.99s10Female10  7.9 m/hr
5010579Evan THOMSON7:37.37:32.69s40Male40  7.9 m/hr
Page 1 of 4 (194 items)
[1]234
fb